< < Back
Terminal Aerodrome Forecast


Current Version              Previous Versions:   1  2  3  4  5  6  7  8  9  

Terminal Aerodrome Forecast

929
FTUS42 KFFC 260500
TAFAHN
TAF
KAHN 260526Z 2606/2706 29003KT P6SM SCT025
     FM261400 30006KT P6SM FEW250
     FM270000 00000KT P6SM SKC=



Latest METAR

016
SAUS70 KWBC 260800
MTRAHN
METAR KAHN 260751Z AUTO 31004KT 10SM CLR 13/11 A2997 RMK AO2 SLP143
T01330106


USA.gov is the U.S. government's official web portal to all federal, state and local government web resources and services.